createdAt,value
2022-08-18T00:00:51.324Z,5.15
2022-08-18T00:03:59.529Z,4.97
2022-08-18T00:07:06.980Z,4.90
2022-08-18T00:10:08.853Z,5.50
2022-08-18T00:13:20.490Z,5.43
2022-08-18T00:16:22.043Z,6.30
2022-08-18T00:19:27.874Z,5.38
2022-08-18T00:22:46.351Z,8.32
2022-08-18T00:25:49.934Z,11.18
2022-08-18T00:28:52.693Z,11.82
2022-08-18T00:31:54.216Z,10.65
2022-08-18T00:34:56.656Z,15.55
2022-08-18T00:38:00.559Z,17.70
2022-08-18T00:41:02.368Z,10.57
2022-08-18T00:44:04.599Z,11.75
2022-08-18T00:47:06.349Z,9.68
2022-08-18T00:50:08.254Z,8.57
2022-08-18T00:53:39.372Z,7.82
2022-08-18T00:56:53.122Z,7.63
2022-08-18T01:00:07.553Z,8.55
2022-08-18T01:03:14.235Z,8.90
2022-08-18T01:06:28.317Z,10.05
2022-08-18T01:09:29.974Z,8.20
2022-08-18T01:12:45.257Z,8.88
2022-08-18T01:15:48.107Z,9.05
2022-08-18T01:19:08.419Z,8.57
2022-08-18T01:22:47.477Z,9.23
2022-08-18T01:26:00.551Z,8.30
2022-08-18T01:29:11.816Z,9.27
2022-08-18T01:32:23.052Z,8.70
2022-08-18T01:35:27.252Z,8.07
2022-08-18T01:38:32.077Z,8.88
2022-08-18T01:41:33.747Z,8.57
2022-08-18T01:44:35.721Z,8.32
2022-08-18T01:47:47.954Z,9.45
2022-08-18T01:50:50.444Z,11.00
2022-08-18T01:53:51.994Z,9.32
2022-08-18T01:56:53.550Z,12.02
2022-08-18T01:59:55.203Z,12.00
2022-08-18T02:02:57.281Z,12.55
2022-08-18T02:06:08.395Z,11.98
2022-08-18T02:09:10.521Z,16.23
2022-08-18T02:12:12.527Z,12.52
2022-08-18T02:15:14.253Z,16.38
2022-08-18T02:18:25.730Z,17.10
2022-08-18T02:21:42.383Z,18.30
2022-08-18T02:24:44.289Z,17.67
2022-08-18T02:27:46.210Z,17.20
2022-08-18T02:30:47.803Z,17.25
2022-08-18T02:33:52.182Z,17.58
2022-08-18T02:36:54.357Z,16.00
2022-08-18T02:39:55.978Z,16.55
2022-08-18T02:42:57.583Z,19.05
2022-08-18T02:45:59.226Z,17.02
2022-08-18T02:49:01.515Z,17.38
2022-08-18T02:52:03.535Z,14.02
2022-08-18T02:55:06.045Z,18.08
2022-08-18T02:58:07.978Z,17.08
2022-08-18T03:01:10.049Z,16.45
2022-08-18T03:04:15.680Z,16.98
2022-08-18T03:07:17.761Z,15.07
2022-08-18T03:10:33.007Z,17.15
2022-08-18T03:13:35.563Z,16.38
2022-08-18T03:16:52.885Z,16.60
2022-08-18T03:19:56.917Z,16.90
2022-08-18T03:23:05.518Z,16.38
2022-08-18T03:26:13.645Z,14.05
2022-08-18T03:29:15.543Z,14.48
2022-08-18T03:32:18.354Z,15.20
2022-08-18T03:35:20.068Z,14.88
2022-08-18T03:38:21.755Z,15.93
2022-08-18T03:41:56.927Z,16.63
2022-08-18T03:44:48.380Z,17.25
2022-08-18T03:47:52.566Z,17.55
2022-08-18T03:50:54.937Z,18.38
2022-08-18T03:54:00.398Z,19.42
2022-08-18T03:57:02.298Z,20.27
2022-08-18T04:00:04.607Z,17.77
2022-08-18T04:03:08.040Z,17.20
2022-08-18T04:06:16.183Z,15.90
2022-08-18T04:09:32.861Z,16.02
2022-08-18T04:12:34.499Z,12.80
2022-08-18T04:15:37.114Z,15.02
2022-08-18T04:18:39.084Z,14.75
2022-08-18T04:21:42.396Z,14.32
2022-08-18T04:24:44.566Z,14.55
2022-08-18T04:27:47.209Z,14.30
2022-08-18T04:30:48.817Z,14.75
2022-08-18T04:33:50.619Z,17.52
2022-08-18T04:36:55.164Z,16.95
2022-08-18T04:39:56.784Z,15.40
2022-08-18T04:42:58.375Z,16.27
2022-08-18T04:46:02.041Z,14.60
2022-08-18T04:49:03.941Z,14.00
2022-08-18T04:52:40.587Z,14.35
2022-08-18T04:55:51.667Z,13.70
2022-08-18T04:59:08.957Z,15.07
2022-08-18T05:02:14.647Z,14.05
2022-08-18T05:05:16.605Z,13.98
2022-08-18T05:08:18.142Z,13.55
2022-08-18T05:11:21.322Z,14.13
2022-08-18T05:14:22.904Z,13.40
2022-08-18T05:17:28.528Z,13.77
2022-08-18T05:20:32.292Z,13.77
2022-08-18T05:23:33.856Z,14.80
2022-08-18T05:26:36.309Z,16.50
2022-08-18T05:29:41.864Z,16.08
2022-08-18T05:32:50.138Z,14.93
2022-08-18T05:36:01.758Z,14.32
2022-08-18T05:39:26.778Z,18.23
2022-08-18T05:42:35.123Z,20.75
2022-08-18T05:45:38.965Z,18.65
2022-08-18T05:48:43.828Z,29.27
2022-08-18T05:51:48.861Z,28.67
2022-08-18T05:55:14.667Z,27.55
2022-08-18T05:58:24.690Z,26.13
2022-08-18T06:01:41.440Z,29.25
2022-08-18T06:04:51.635Z,34.20
2022-08-18T06:08:14.228Z,33.38
2022-08-18T06:11:22.556Z,35.70
2022-08-18T06:14:24.937Z,31.98
2022-08-18T06:17:55.525Z,33.22
2022-08-18T06:21:10.163Z,33.17
2022-08-18T06:24:33.633Z,35.65
2022-08-18T06:27:44.157Z,37.25
2022-08-18T06:30:57.087Z,38.35
2022-08-18T06:34:10.647Z,32.67
2022-08-18T06:37:20.288Z,34.40
2022-08-18T06:40:21.882Z,38.10
2022-08-18T06:43:23.676Z,34.22
2022-08-18T06:46:56.253Z,31.80
2022-08-18T06:50:06.852Z,28.83
2022-08-18T06:53:26.700Z,36.33
2022-08-18T06:56:47.095Z,38.50
2022-08-18T06:59:56.079Z,38.25
2022-08-18T07:03:09.438Z,37.22
2022-08-18T07:06:28.955Z,36.95
2022-08-18T07:09:34.062Z,31.43
2022-08-18T07:12:35.829Z,30.25
2022-08-18T07:15:37.460Z,27.88
2022-08-18T07:18:39.036Z,27.15
2022-08-18T07:21:40.928Z,27.65
2022-08-18T07:24:49.506Z,27.15
2022-08-18T07:27:55.926Z,28.35
2022-08-18T07:31:16.917Z,27.77
2022-08-18T07:34:55.113Z,26.42
2022-08-18T07:38:18.792Z,27.80
2022-08-18T07:41:31.861Z,33.10
2022-08-18T07:45:00.513Z,32.38
2022-08-18T07:48:38.636Z,32.40
2022-08-18T07:51:57.564Z,35.33
2022-08-18T07:55:14.133Z,34.50
2022-08-18T07:58:30.403Z,34.78
2022-08-18T08:01:58.268Z,35.42
2022-08-18T08:04:59.877Z,32.72
2022-08-18T08:08:13.664Z,33.53
2022-08-18T08:11:37.582Z,34.05
2022-08-18T08:14:39.241Z,33.15
2022-08-18T08:18:11.677Z,34.13
2022-08-18T08:21:19.736Z,30.15
2022-08-18T08:24:53.387Z,31.38
2022-08-18T08:28:22.984Z,33.58
2022-08-18T08:31:59.838Z,30.17
2022-08-18T08:35:07.258Z,28.20
2022-08-18T08:38:42.847Z,26.00
2022-08-18T08:42:29.679Z,27.42
2022-08-18T08:45:48.697Z,26.45
2022-08-18T08:49:01.417Z,24.25
2022-08-18T08:52:26.486Z,23.60
2022-08-18T08:55:43.727Z,25.67
2022-08-18T08:58:49.893Z,23.42
2022-08-18T09:02:37.933Z,25.75
2022-08-18T09:05:57.219Z,21.55
2022-08-18T09:09:24.254Z,20.83
2022-08-18T09:12:52.039Z,21.48
2022-08-18T09:16:13.818Z,20.50
2022-08-18T09:19:58.693Z,19.27
2022-08-18T09:23:11.928Z,23.55
2022-08-18T09:26:39.546Z,18.50
2022-08-18T09:29:55.295Z,18.48
2022-08-18T09:33:18.440Z,25.48
2022-08-18T09:36:40.730Z,22.77
2022-08-18T09:40:13.169Z,22.88
2022-08-18T09:43:39.168Z,24.55
2022-08-18T09:46:43.828Z,20.23
2022-08-18T09:49:54.674Z,21.58
2022-08-18T09:53:04.468Z,20.20
2022-08-18T09:56:06.328Z,21.77
2022-08-18T10:02:29.546Z,15.40
2022-08-18T10:05:31.628Z,14.35
2022-08-18T10:08:59.002Z,14.45
2022-08-18T10:12:04.417Z,13.07
2022-08-18T10:15:33.991Z,14.13
2022-08-18T10:18:51.320Z,13.02
2022-08-18T10:22:01.850Z,12.73
2022-08-18T10:25:23.070Z,17.63
2022-08-18T10:28:49.961Z,18.25
2022-08-18T10:31:59.797Z,17.10
2022-08-18T10:35:01.787Z,16.23
2022-08-18T10:38:14.171Z,13.95
2022-08-18T10:41:26.163Z,13.88
2022-08-18T10:44:31.727Z,14.27
2022-08-18T10:47:34.143Z,14.18
2022-08-18T10:50:48.869Z,13.10
2022-08-18T10:54:04.626Z,15.90
2022-08-18T10:57:18.125Z,13.77
2022-08-18T11:00:21.981Z,14.38
2022-08-18T11:04:14.514Z,16.75
2022-08-18T11:07:34.287Z,13.13
2022-08-18T11:11:06.887Z,12.00
2022-08-18T11:14:24.959Z,12.43
2022-08-18T11:18:10.486Z,13.60
2022-08-18T11:21:42.220Z,12.95
2022-08-18T11:24:45.080Z,12.90
2022-08-18T11:27:49.097Z,12.65
2022-08-18T11:30:54.780Z,13.77
2022-08-18T11:33:56.460Z,13.48
2022-08-18T11:37:02.193Z,12.90
2022-08-18T11:41:02.111Z,13.18
2022-08-18T11:43:46.804Z,12.63
2022-08-18T11:46:52.003Z,12.05
2022-08-18T11:50:09.671Z,12.52
2022-08-18T11:53:24.123Z,12.10
2022-08-18T11:56:37.644Z,13.98
2022-08-18T11:59:54.503Z,12.13
2022-08-18T12:03:04.221Z,11.18
2022-08-18T12:06:32.004Z,13.20
2022-08-18T12:13:02.948Z,12.32
2022-08-18T12:16:11.037Z,13.50
2022-08-18T12:19:14.911Z,12.20
2022-08-18T12:22:34.801Z,11.57
2022-08-18T12:25:36.802Z,11.63
2022-08-18T12:28:41.238Z,10.98
2022-08-18T12:31:48.239Z,12.07
2022-08-18T12:34:51.363Z,11.63
2022-08-18T12:41:18.631Z,12.15
2022-08-18T12:44:27.105Z,12.02
2022-08-18T12:47:31.072Z,11.38
2022-08-18T12:50:37.590Z,13.32
2022-08-18T12:53:58.544Z,11.48
2022-08-18T12:57:03.618Z,11.02
2022-08-18T13:00:09.229Z,11.57
2022-08-18T13:03:17.600Z,11.55
2022-08-18T13:06:19.957Z,11.20
2022-08-18T13:09:35.044Z,10.45
2022-08-18T13:12:43.706Z,9.82
2022-08-18T13:15:57.803Z,9.55
2022-08-18T13:19:00.531Z,9.32
2022-08-18T13:22:02.090Z,9.65
2022-08-18T13:25:07.208Z,9.73
2022-08-18T13:28:09.002Z,10.30
2022-08-18T13:31:10.771Z,9.88
2022-08-18T13:34:19.156Z,9.32
2022-08-18T13:37:26.477Z,9.63
2022-08-18T13:40:29.607Z,9.13
2022-08-18T13:43:35.751Z,8.68
2022-08-18T13:46:45.454Z,8.98
2022-08-18T13:49:57.976Z,8.35
2022-08-18T13:53:02.150Z,7.75
2022-08-18T13:56:09.726Z,9.10
2022-08-18T13:59:13.010Z,8.77
2022-08-18T14:02:17.974Z,8.57
2022-08-18T14:05:21.375Z,8.68
2022-08-18T14:08:38.566Z,8.38
2022-08-18T14:11:42.010Z,8.50
2022-08-18T14:14:43.675Z,8.55
2022-08-18T14:17:45.194Z,8.10
2022-08-18T14:21:05.351Z,8.20
2022-08-18T14:24:25.725Z,8.27
2022-08-18T14:30:37.937Z,9.35
2022-08-18T14:33:50.611Z,9.57
2022-08-18T14:36:54.031Z,10.60
2022-08-18T14:39:58.073Z,10.30
2022-08-18T14:43:01.873Z,9.15
2022-08-18T14:46:04.924Z,9.95
2022-08-18T14:49:08.950Z,9.85
2022-08-18T14:52:13.988Z,9.43
2022-08-18T14:55:17.680Z,9.57
2022-08-18T14:58:20.834Z,9.52
2022-08-18T15:01:23.131Z,9.55
2022-08-18T15:04:25.694Z,8.35
2022-08-18T15:07:28.351Z,8.75
2022-08-18T15:10:34.423Z,8.82
2022-08-18T15:13:41.604Z,9.18
2022-08-18T15:16:44.203Z,8.07
2022-08-18T15:20:00.321Z,8.88
2022-08-18T15:23:22.819Z,8.63
2022-08-18T15:26:30.935Z,8.30
2022-08-18T15:29:33.619Z,8.95
2022-08-18T15:32:35.247Z,7.85
2022-08-18T15:35:41.550Z,8.07
2022-08-18T15:38:45.820Z,8.45
2022-08-18T15:44:53.614Z,8.10
2022-08-18T15:47:56.033Z,7.15
2022-08-18T15:51:11.717Z,7.53
2022-08-18T15:54:13.996Z,7.05
2022-08-18T15:57:39.782Z,6.90
2022-08-18T16:00:47.827Z,7.22
2022-08-18T16:03:54.410Z,7.18
2022-08-18T16:06:56.127Z,7.32
2022-08-18T16:09:57.810Z,7.07
2022-08-18T16:13:04.349Z,6.45
2022-08-18T16:16:12.874Z,6.13
2022-08-18T16:19:14.660Z,5.57
2022-08-18T16:22:16.239Z,5.50
2022-08-18T16:25:17.891Z,5.35
2022-08-18T16:28:19.443Z,5.60
2022-08-18T16:31:26.087Z,5.13
2022-08-18T16:34:30.841Z,5.32
2022-08-18T16:37:33.044Z,5.07
2022-08-18T16:40:35.014Z,5.38
2022-08-18T16:43:37.423Z,5.45
2022-08-18T16:46:38.994Z,5.20
2022-08-18T16:49:40.586Z,5.80
2022-08-18T16:52:42.501Z,5.22
2022-08-18T16:55:44.892Z,5.40
2022-08-18T16:59:05.433Z,5.35
2022-08-18T17:02:41.416Z,5.07
2022-08-18T17:05:42.964Z,5.45
2022-08-18T17:08:45.250Z,5.75
2022-08-18T17:11:51.703Z,5.70
2022-08-18T17:14:55.721Z,5.05
2022-08-18T17:17:57.265Z,5.50
2022-08-18T17:21:07.005Z,5.60
2022-08-18T17:24:10.578Z,4.95
2022-08-18T17:27:27.072Z,5.63
2022-08-18T17:30:33.158Z,5.30
2022-08-18T17:33:38.124Z,5.57
2022-08-18T17:36:52.884Z,5.28
2022-08-18T17:40:03.894Z,4.90
2022-08-18T17:43:13.932Z,5.25
2022-08-18T17:46:28.084Z,5.20
2022-08-18T17:50:26.524Z,4.95
2022-08-18T17:53:17.944Z,5.72
2022-08-18T17:56:35.236Z,5.57
2022-08-18T18:00:11.371Z,5.82
2022-08-18T18:03:17.658Z,6.03
2022-08-18T18:06:31.463Z,5.57
2022-08-18T18:09:32.980Z,5.82
2022-08-18T18:12:36.681Z,6.03
2022-08-18T18:15:45.396Z,5.68
2022-08-18T18:18:56.485Z,5.32
2022-08-18T18:22:11.049Z,5.32
2022-08-18T18:25:28.320Z,5.13
2022-08-18T18:28:35.951Z,5.78
2022-08-18T18:31:37.777Z,5.40
2022-08-18T18:34:58.753Z,5.22
2022-08-18T18:38:35.937Z,6.65
2022-08-18T18:41:40.119Z,6.35
2022-08-18T18:44:51.852Z,6.40
2022-08-18T18:48:05.445Z,5.90
2022-08-18T18:51:19.175Z,6.20
2022-08-18T18:54:35.327Z,5.88
2022-08-18T18:57:55.326Z,6.43
2022-08-18T19:00:59.534Z,5.25
2022-08-18T19:04:22.836Z,5.95
2022-08-18T19:07:27.706Z,6.32
2022-08-18T19:11:10.045Z,6.38
2022-08-18T19:14:25.020Z,7.15
2022-08-18T19:17:41.029Z,6.68
2022-08-18T19:22:04.681Z,6.80
2022-08-18T19:24:17.067Z,6.18
2022-08-18T19:27:28.170Z,6.72
2022-08-18T19:30:32.724Z,6.53
2022-08-18T19:33:46.641Z,6.80
2022-08-18T19:37:01.267Z,6.72
2022-08-18T19:40:35.196Z,6.38
2022-08-18T19:43:41.255Z,7.03
2022-08-18T19:46:47.679Z,7.05
2022-08-18T19:50:08.177Z,6.85
2022-08-18T19:53:18.792Z,7.30
2022-08-18T19:56:41.415Z,7.60
2022-08-18T20:00:13.871Z,7.15
2022-08-18T20:03:33.532Z,7.47
2022-08-18T20:06:56.134Z,7.82
2022-08-18T20:10:20.915Z,7.35
2022-08-18T20:13:44.598Z,7.93
2022-08-18T20:17:16.772Z,7.95
2022-08-18T20:20:18.478Z,7.18
2022-08-18T20:23:33.407Z,7.57
2022-08-18T20:26:34.971Z,7.40
2022-08-18T20:29:36.618Z,7.05
2022-08-18T20:32:38.201Z,6.78
2022-08-18T20:36:18.707Z,6.90
2022-08-18T20:39:38.690Z,7.05
2022-08-18T20:42:45.293Z,7.00
2022-08-18T20:46:33.716Z,6.78
2022-08-18T20:49:51.610Z,6.55
2022-08-18T20:53:32.732Z,5.95
2022-08-18T20:56:48.351Z,6.75
2022-08-18T21:00:02.518Z,6.43
2022-08-18T21:03:12.215Z,6.13
2022-08-18T21:06:15.606Z,6.70
2022-08-18T21:09:18.449Z,6.22
2022-08-18T21:12:23.492Z,6.32
2022-08-18T21:15:36.977Z,6.38
2022-08-18T21:18:40.848Z,6.40
2022-08-18T21:21:49.282Z,6.25
2022-08-18T21:24:50.955Z,6.65
2022-08-18T21:27:52.874Z,6.45
2022-08-18T21:31:42.929Z,6.43
2022-08-18T21:34:36.448Z,6.50
2022-08-18T21:37:41.237Z,7.28
2022-08-18T21:40:46.965Z,6.35
2022-08-18T21:43:50.361Z,6.35
2022-08-18T21:47:05.599Z,5.93
2022-08-18T21:50:10.084Z,5.82
2022-08-18T21:53:11.574Z,6.15
2022-08-18T21:56:30.993Z,6.00
2022-08-18T21:59:32.504Z,6.07
2022-08-18T22:02:34.102Z,6.15
2022-08-18T22:05:58.020Z,5.90
2022-08-18T22:09:28.270Z,5.53
2022-08-18T22:12:53.221Z,5.93
2022-08-18T22:15:54.910Z,5.63
2022-08-18T22:19:11.521Z,5.82
2022-08-18T22:22:36.923Z,5.70
2022-08-18T22:25:39.574Z,5.20
2022-08-18T22:29:10.286Z,5.13
2022-08-18T22:32:13.209Z,5.07
2022-08-18T22:35:14.905Z,5.43
2022-08-18T22:38:16.490Z,5.93
2022-08-18T22:41:18.928Z,5.03
2022-08-18T22:44:20.521Z,5.32
2022-08-18T22:47:23.876Z,5.60
2022-08-18T22:50:25.481Z,6.32
2022-08-18T22:53:27.216Z,7.93
2022-08-18T22:56:34.723Z,20.25
2022-08-18T22:59:36.954Z,25.08
2022-08-18T23:02:43.918Z,26.20
2022-08-18T23:05:45.540Z,25.40
2022-08-18T23:08:54.347Z,26.02
2022-08-18T23:12:04.508Z,23.67
2022-08-18T23:15:12.080Z,23.25
2022-08-18T23:18:19.481Z,24.75
2022-08-18T23:21:34.496Z,23.42
2022-08-18T23:24:37.646Z,22.42
2022-08-18T23:27:39.405Z,23.02
2022-08-18T23:30:41.300Z,21.70
2022-08-18T23:33:42.916Z,21.15
2022-08-18T23:36:46.534Z,21.30
2022-08-18T23:39:48.320Z,21.75
2022-08-18T23:42:51.476Z,19.38
2022-08-18T23:45:53.156Z,20.77
2022-08-18T23:48:57.305Z,19.27
2022-08-18T23:52:00.529Z,19.50
2022-08-18T23:55:07.736Z,18.08
2022-08-18T23:58:10.258Z,18.23
